Time;durP1;ratioP1;P1;durP2;ratioP2;P2;SDS_P1;SDS_P2;PMS_P1;PMS_P2;Temp;Humidity;BMP_temperature;BMP_pressure;BME280_temperature;BME280_humidity;BME280_pressure;Samples;Min_cycle;Max_cycle;Signal;HPM_P1;HPM_P2
2022/05/16 00:00:10;;;;;;;16.63;6.63;;;17.20;99.90;;;;;;5099627;28;20586;-75
2022/05/16 00:02:36;;;;;;;16.73;6.63;;;17.10;99.90;;;;;;5098243;28;20028;-75
2022/05/16 00:05:03;;;;;;;10.15;5.80;;;17.10;99.90;;;;;;5098204;28;20028;-75
2022/05/16 00:07:29;;;;;;;15.63;5.75;;;17.10;99.90;;;;;;5099752;28;20069;-75
2022/05/16 00:09:55;;;;;;;14.75;6.38;;;17.10;99.90;;;;;;5099418;28;20023;-75
2022/05/16 00:12:21;;;;;;;19.63;7.30;;;17.10;99.90;;;;;;5099351;28;20442;-75
2022/05/16 00:14:47;;;;;;;18.92;6.13;;;17.10;99.90;;;;;;5098781;28;20024;-75
2022/05/16 00:17:13;;;;;;;13.05;6.28;;;17.10;99.90;;;;;;5085186;28;20081;-76
2022/05/16 00:19:41;;;;;;;33.65;8.30;;;17.10;99.90;;;;;;5097921;28;20035;-76
2022/05/16 00:24:51;;;;;;;17.00;5.75;;;17.00;99.90;;;;;;5099472;28;20093;-75
2022/05/16 00:27:17;;;;;;;20.13;5.15;;;17.10;99.90;;;;;;5099154;28;20028;-75
2022/05/16 00:29:43;;;;;;;17.35;6.45;;;17.00;99.90;;;;;;5098950;28;20031;-75
2022/05/16 00:32:09;;;;;;;22.15;7.30;;;17.00;99.90;;;;;;5099149;28;20016;-75
2022/05/16 00:34:36;;;;;;;25.48;7.72;;;17.00;99.90;;;;;;5098860;28;20070;-76
2022/05/16 00:37:02;;;;;;;25.88;6.93;;;17.00;99.90;;;;;;5099047;28;20103;-75
2022/05/16 00:39:29;;;;;;;21.08;6.68;;;17.00;99.90;;;;;;5099147;28;20092;-75
2022/05/16 00:41:55;;;;;;;15.50;5.82;;;17.00;99.90;;;;;;5098675;28;20024;-76
2022/05/16 00:44:22;;;;;;;18.63;6.65;;;16.90;99.90;;;;;;5098557;28;20020;-75
2022/05/16 00:46:48;;;;;;;26.95;8.23;;;16.90;99.90;;;;;;5097336;28;20051;-75
2022/05/16 00:49:24;;;;;;;23.83;7.30;;;16.90;99.90;;;;;;5098197;28;20024;-75
2022/05/16 00:52:29;;;;;;;15.25;5.85;;;16.90;99.90;;;;;;5098855;28;20422;-75
2022/05/16 00:54:58;;;;;;;20.85;6.93;;;16.90;99.90;;;;;;5067536;28;20043;-75
2022/05/16 00:57:35;;;;;;;21.00;6.32;;;16.90;99.90;;;;;;5096769;28;20036;-75
2022/05/16 01:00:19;;;;;;;25.13;6.88;;;17.00;99.90;;;;;;5097041;28;20115;-75
2022/05/16 01:05:38;;;;;;;17.25;6.60;;;17.10;99.90;;;;;;5098582;28;20163;-75
2022/05/16 01:08:12;;;;;;;13.45;5.57;;;17.10;99.90;;;;;;5097097;28;20020;-75
2022/05/16 01:10:39;;;;;;;17.27;7.05;;;17.20;99.90;;;;;;5098421;28;20093;-75
2022/05/16 01:13:06;;;;;;;14.38;6.57;;;17.30;99.90;;;;;;5098170;28;20020;-76
2022/05/16 01:15:44;;;;;;;22.10;6.50;;;17.40;99.90;;;;;;5091537;28;20033;-75
2022/05/16 01:18:13;;;;;;;27.73;7.05;;;17.40;99.90;;;;;;5091426;28;20030;-75
2022/05/16 01:20:45;;;;;;;20.40;6.43;;;17.50;99.90;;;;;;5097149;28;20028;-75
2022/05/16 01:23:14;;;;;;;22.48;6.50;;;17.50;99.90;;;;;;5097966;28;20141;-75
2022/05/16 01:25:40;;;;;;;23.52;6.90;;;17.50;99.90;;;;;;5098152;28;20027;-76
2022/05/16 01:28:06;;;;;;;20.60;5.97;;;17.50;99.90;;;;;;5096614;28;20020;-75
2022/05/16 01:30:47;;;;;;;24.67;6.20;;;17.40;99.90;;;;;;5098028;28;20074;-75
2022/05/16 01:33:13;;;;;;;;;;;17.30;99.90;;;;;;5098195;28;20051;-75
2022/05/16 01:35:39;;;;;;;22.77;5.57;;;17.20;99.90;;;;;;5089538;28;19959;-75
2022/05/16 01:38:21;;;;;;;15.10;5.65;;;17.10;99.90;;;;;;5096623;28;20028;-75
2022/05/16 01:41:00;;;;;;;26.92;7.95;;;17.00;99.90;;;;;;5096097;28;20032;-75
2022/05/16 01:43:38;;;;;;;30.35;7.35;;;16.90;99.90;;;;;;5097810;28;20110;-75
2022/05/16 01:46:05;;;;;;;18.92;5.78;;;16.70;99.90;;;;;;5096073;28;20055;-75
2022/05/16 01:48:32;;;;;;;17.55;7.13;;;16.60;99.90;;;;;;5097409;28;20028;-75
2022/05/16 01:51:04;;;;;;;19.13;6.55;;;16.60;99.90;;;;;;5096266;28;20031;-75
2022/05/16 01:53:30;;;;;;;16.17;6.18;;;16.50;99.90;;;;;;5096364;28;20032;-75
2022/05/16 01:55:57;;;;;;;20.38;6.00;;;16.50;99.90;;;;;;5097308;28;20020;-75
2022/05/16 01:58:23;;;;;;;17.65;6.80;;;16.50;99.90;;;;;;5096211;28;20085;-75
2022/05/16 02:00:50;;;;;;;18.38;6.55;;;16.40;99.90;;;;;;5095653;28;20024;-75
2022/05/16 02:03:16;;;;;;;21.42;6.95;;;16.40;99.90;;;;;;5097480;28;20468;-75
2022/05/16 02:05:43;;;;;;;17.95;6.85;;;16.40;99.90;;;;;;5097481;28;20020;-75
2022/05/16 02:08:10;;;;;;;16.27;6.88;;;16.40;99.90;;;;;;5096178;28;20065;-75
2022/05/16 02:10:36;;;;;;;16.20;5.82;;;16.40;99.90;;;;;;5095761;28;20024;-75
2022/05/16 02:13:03;;;;;;;19.50;6.50;;;16.40;99.90;;;;;;5097289;28;20034;-75
2022/05/16 02:15:33;;;;;;;21.77;7.43;;;16.30;99.90;;;;;;5090760;28;20481;-75
2022/05/16 02:17:59;;;;;;;24.38;7.53;;;16.30;99.90;;;;;;5089255;28;20028;-75
2022/05/16 02:20:26;;;;;;;19.45;7.30;;;16.30;99.90;;;;;;5095935;28;20047;-75
2022/05/16 02:25:40;;;;;;;18.30;6.63;;;16.30;99.90;;;;;;5097210;28;20027;-75
2022/05/16 02:28:09;;;;;;;20.27;6.95;;;16.30;99.90;;;;;;5097171;28;20400;-75
2022/05/16 02:30:35;;;;;;;19.23;6.75;;;16.30;99.90;;;;;;5097203;28;20059;-75
2022/05/16 02:33:02;;;;;;;30.05;6.95;;;16.30;99.90;;;;;;5096978;28;20073;-75
2022/05/16 02:35:30;;;;;;;23.30;7.10;;;16.40;99.90;;;;;;5097339;28;20020;-75
2022/05/16 02:37:58;;;;;;;22.83;7.05;;;16.40;99.90;;;;;;5097034;28;20378;-75
2022/05/16 02:40:30;;;;;;;24.70;6.93;;;16.30;99.90;;;;;;5095584;28;20019;-75
2022/05/16 02:42:56;;;;;;;32.75;6.85;;;16.30;99.90;;;;;;5096928;28;20020;-75
2022/05/16 02:45:23;;;;;;;16.23;6.85;;;16.30;99.90;;;;;;5096993;28;20499;-75
2022/05/16 02:47:49;;;;;;;18.85;6.40;;;16.30;99.90;;;;;;5096942;28;20059;-75
2022/05/16 02:50:15;;;;;;;18.05;6.68;;;16.30;99.90;;;;;;5095790;28;20024;-75
2022/05/16 02:52:42;;;;;;;21.05;7.45;;;16.20;99.90;;;;;;5097036;28;20052;-75
2022/05/16 02:55:09;;;;;;;27.83;7.47;;;16.20;99.90;;;;;;5095415;28;20050;-75
2022/05/16 02:57:35;;;;;;;21.33;7.78;;;16.10;99.90;;;;;;5096787;28;20067;-75
2022/05/16 03:00:01;;;;;;;24.92;8.32;;;16.10;99.90;;;;;;5095577;28;20027;-75
2022/05/16 03:02:27;;;;;;;20.80;6.95;;;16.00;99.90;;;;;;5095387;28;20115;-75
2022/05/16 03:04:53;;;;;;;17.13;6.88;;;15.90;99.90;;;;;;5095572;28;20020;-75
2022/05/16 03:07:19;;;;;;;18.75;8.00;;;15.90;99.90;;;;;;5096903;28;20020;-75
2022/05/16 03:09:46;;;;;;;19.42;6.95;;;15.80;99.90;;;;;;5095737;28;20107;-75
2022/05/16 03:12:13;;;;;;;23.77;8.20;;;15.80;99.90;;;;;;5097834;28;20035;-75
2022/05/16 03:14:39;;;;;;;22.00;8.23;;;15.70;99.90;;;;;;5099111;28;20024;-75
2022/05/16 03:17:05;;;;;;;17.42;6.47;;;15.70;99.90;;;;;;5086653;28;20032;-75
2022/05/16 03:19:34;;;;;;;19.40;7.32;;;15.70;99.90;;;;;;5099194;28;20035;-75
2022/05/16 03:21:59;;;;;;;21.75;8.77;;;15.70;99.90;;;;;;5100176;28;20067;-75
2022/05/16 03:24:25;;;;;;;21.88;8.20;;;15.60;99.90;;;;;;5100396;28;20028;-75
2022/05/16 03:26:51;;;;;;;23.40;7.90;;;15.60;99.90;;;;;;5098787;28;20115;-75
2022/05/16 03:29:17;;;;;;;14.98;7.15;;;15.60;99.90;;;;;;5100622;28;20020;-75
2022/05/16 03:31:44;;;;;;;15.85;6.78;;;15.60;99.90;;;;;;5100128;28;20024;-75
2022/05/16 03:34:11;;;;;;;22.52;6.95;;;15.60;99.90;;;;;;5100463;28;20024;-76
2022/05/16 03:36:37;;;;;;;17.23;7.25;;;15.50;99.90;;;;;;5098896;28;20028;-75
2022/05/16 03:41:49;;;;;;;22.75;7.47;;;15.40;99.90;;;;;;5100095;28;20166;-76
2022/05/16 03:44:15;;;;;;;23.88;7.70;;;15.40;99.90;;;;;;5098468;28;20062;-76
2022/05/16 03:46:41;;;;;;;20.88;7.60;;;15.40;99.90;;;;;;5099763;28;20404;-76
2022/05/16 03:49:07;;;;;;;21.13;7.45;;;15.30;99.90;;;;;;5099914;28;20115;-75
2022/05/16 03:51:34;;;;;;;24.77;7.90;;;15.30;99.90;;;;;;5098611;28;20032;-75
2022/05/16 03:54:00;;;;;;;16.60;8.13;;;15.20;99.90;;;;;;5099839;28;20475;-75
2022/05/16 03:56:27;;;;;;;23.10;7.47;;;15.20;99.90;;;;;;5098509;28;20024;-76
2022/05/16 03:58:54;;;;;;;23.35;7.82;;;15.20;99.90;;;;;;5099424;28;20016;-76
2022/05/16 04:01:21;;;;;;;17.38;7.82;;;15.20;99.90;;;;;;5098493;28;20024;-76
2022/05/16 04:03:47;;;;;;;22.55;7.90;;;15.20;99.90;;;;;;5099450;28;20510;-75
2022/05/16 04:06:14;;;;;;;20.20;7.60;;;15.10;99.90;;;;;;5098694;28;20157;-76
2022/05/16 04:08:40;;;;;;;24.00;7.72;;;15.10;99.90;;;;;;5098131;28;20400;-75
2022/05/16 04:11:07;;;;;;;16.80;7.53;;;15.00;99.90;;;;;;5097944;28;20028;-75
2022/05/16 04:13:33;;;;;;;23.55;7.43;;;15.00;99.90;;;;;;5099330;28;20023;-75
2022/05/16 04:15:59;;;;;;;30.27;9.15;;;14.90;99.90;;;;;;5087632;28;20035;-76
2022/05/16 04:18:25;;;;;;;22.00;7.88;;;14.90;99.90;;;;;;5094841;28;20016;-76
2022/05/16 04:20:51;;;;;;;21.08;8.35;;;14.90;99.90;;;;;;5099382;28;20024;-76
2022/05/16 04:23:18;;;;;;;20.90;7.97;;;14.90;99.90;;;;;;5098286;28;20024;-76
2022/05/16 04:25:45;;;;;;;24.02;8.23;;;14.80;99.90;;;;;;5099077;28;20020;-76
2022/05/16 04:28:11;;;;;;;18.20;8.60;;;14.80;99.90;;;;;;5098989;28;20020;-76
2022/05/16 04:30:38;;;;;;;19.08;9.13;;;14.90;99.90;;;;;;5099123;28;20031;-76
2022/05/16 04:33:05;;;;;;;20.45;8.40;;;14.90;99.90;;;;;;5097555;28;20024;-76
2022/05/16 04:35:32;;;;;;;28.77;9.00;;;14.90;99.90;;;;;;5099015;28;20403;-76
2022/05/16 04:37:57;;;;;;;21.05;8.60;;;14.90;99.90;;;;;;5098919;28;20054;-76
2022/05/16 04:40:24;;;;;;;20.25;8.27;;;14.90;99.90;;;;;;5097294;28;20064;-76
2022/05/16 04:42:50;;;;;;;29.40;8.80;;;14.80;99.90;;;;;;5097310;28;20021;-76
2022/05/16 04:45:19;;;;;;;20.92;7.82;;;14.90;99.90;;;;;;5098756;28;20044;-77
2022/05/16 04:47:48;;;;;;;15.85;7.70;;;14.90;99.90;;;;;;5097327;28;20074;-77
2022/05/16 04:50:17;;;;;;;19.42;8.00;;;15.00;99.90;;;;;;5097460;28;20506;-77
2022/05/16 04:52:42;;;;;;;28.02;9.38;;;15.00;99.90;;;;;;5098509;28;20024;-77
2022/05/16 04:55:09;;;;;;;19.98;8.13;;;15.00;99.90;;;;;;5098428;28;20032;-77
2022/05/16 04:57:35;;;;;;;26.80;8.80;;;15.10;99.90;;;;;;5098393;28;20023;-74
2022/05/16 05:00:02;;;;;;;20.20;7.47;;;15.10;99.90;;;;;;5098537;28;20081;-74
2022/05/16 05:02:28;;;;;;;16.83;8.30;;;15.10;99.90;;;;;;5096956;28;20461;-77
2022/05/16 05:04:54;;;;;;;22.65;7.93;;;15.20;99.90;;;;;;5097100;28;20082;-74
2022/05/16 05:07:20;;;;;;;20.08;8.70;;;15.20;99.90;;;;;;5098310;28;20105;-74
2022/05/16 05:15:17;;;;;;;29.10;8.48;;;15.40;99.90;;;;;;5093893;28;20031;-76
2022/05/16 05:17:43;;;;;;;17.65;7.65;;;15.50;99.90;;;;;;5087899;28;20096;-75
2022/05/16 05:20:13;;;;;;;23.10;9.65;;;15.60;99.90;;;;;;5096644;28;20035;-75
2022/05/16 05:22:42;;;;;;;21.98;8.63;;;15.70;99.90;;;;;;5097947;28;20076;-75
2022/05/16 05:25:11;;;;;;;23.00;8.68;;;15.80;99.90;;;;;;5097706;28;20493;-75
2022/05/16 05:27:39;;;;;;;18.63;8.88;;;15.90;99.90;;;;;;5096694;28;20027;-75
2022/05/16 05:30:09;;;;;;;28.77;8.68;;;15.90;99.90;;;;;;5096474;28;20048;-76
2022/05/16 05:32:36;;;;;;;26.35;9.68;;;15.90;99.90;;;;;;5089793;28;20031;-76
2022/05/16 05:35:02;;;;;;;14.27;7.93;;;16.00;99.90;;;;;;5097413;28;20036;-75
2022/05/16 05:37:28;;;;;;;26.15;9.60;;;16.00;99.90;;;;;;5097947;28;20052;-74
2022/05/16 05:39:58;;;;;;;20.85;8.48;;;16.10;99.90;;;;;;5096189;28;20023;-75
2022/05/16 05:42:25;;;;;;;23.48;7.43;;;16.20;99.90;;;;;;5097685;28;20016;-76
2022/05/16 05:44:51;;;;;;;26.05;8.60;;;16.40;99.90;;;;;;5096175;28;20035;-75
2022/05/16 05:47:17;;;;;;;24.92;7.80;;;16.50;99.90;;;;;;5096394;28;20027;-75
2022/05/16 05:49:43;;;;;;;19.08;7.97;;;16.70;99.90;;;;;;5097543;28;20088;-76
2022/05/16 05:52:09;;;;;;;26.27;8.57;;;16.90;99.90;;;;;;5097752;28;20633;-75
2022/05/16 05:54:35;;;;;;;24.85;9.60;;;17.00;99.90;;;;;;5097473;28;20027;-76
2022/05/16 05:57:02;;;;;;;20.40;6.63;;;17.10;99.90;;;;;;5096357;28;20028;-75
2022/05/16 05:59:28;;;;;;;22.08;7.53;;;17.30;99.90;;;;;;5096001;28;20024;-75
2022/05/16 06:01:54;;;;;;;20.52;8.15;;;17.40;99.90;;;;;;5097470;28;20028;-75
2022/05/16 06:04:20;;;;;;;17.25;8.02;;;17.60;99.90;;;;;;5097502;28;20016;-76
2022/05/16 06:06:47;;;;;;;32.70;8.15;;;17.70;99.90;;;;;;5097607;28;20046;-75
2022/05/16 06:09:13;;;;;;;24.80;7.43;;;17.80;99.90;;;;;;5090773;28;20046;-76
2022/05/16 06:11:40;;;;;;;23.02;7.30;;;18.00;99.90;;;;;;5089311;28;20031;-76
2022/05/16 06:14:05;;;;;;;28.50;7.97;;;18.00;99.90;;;;;;5097545;28;20024;-76
2022/05/16 06:16:32;;;;;;;22.17;7.30;;;18.10;99.90;;;;;;5082212;28;20025;-76
2022/05/16 06:18:57;;;;;;;25.08;7.18;;;18.20;99.90;;;;;;5096001;28;20024;-76
2022/05/16 06:21:23;;;;;;;15.95;6.15;;;18.30;99.90;;;;;;5095860;28;20017;-76
2022/05/16 06:23:49;;;;;;;23.63;7.28;;;18.40;99.90;;;;;;5097609;28;20442;-76
2022/05/16 06:26:16;;;;;;;17.63;6.90;;;18.50;99.90;;;;;;5096930;28;20469;-76
2022/05/16 06:28:42;;;;;;;21.60;7.20;;;18.50;99.90;;;;;;5096038;28;20054;-76
2022/05/16 06:31:08;;;;;;;19.17;6.47;;;18.60;99.90;;;;;;5095746;28;20036;-76
2022/05/16 06:33:34;;;;;;;24.10;8.27;;;18.70;99.90;;;;;;5097214;28;20024;-76
2022/05/16 06:36:01;;;;;;;19.73;7.75;;;18.80;99.90;;;;;;5097191;28;20036;-76
2022/05/16 06:38:31;;;;;;;22.25;7.70;;;18.90;99.90;;;;;;5097243;28;20024;-76
2022/05/16 06:40:58;;;;;;;19.88;7.40;;;19.00;99.90;;;;;;5096939;28;20035;-76
2022/05/16 06:43:27;;;;;;;18.40;7.25;;;19.20;99.90;;;;;;5097474;28;20110;-76
2022/05/16 06:45:53;;;;;;;23.83;6.45;;;19.30;99.90;;;;;;5095932;28;20036;-76
2022/05/16 06:48:19;;;;;;;19.10;7.60;;;19.30;99.90;;;;;;5099803;28;20024;-76
2022/05/16 06:50:47;;;;;;;19.75;7.60;;;19.40;99.90;;;;;;5100978;28;20016;-76
2022/05/16 06:53:20;;;;;;;13.55;7.82;;;19.50;99.90;;;;;;5100036;28;20020;-75
2022/05/16 06:55:46;;;;;;;15.32;6.75;;;19.70;99.90;;;;;;5099235;28;20037;-76
2022/05/16 06:58:12;;;;;;;17.65;6.10;;;19.70;99.90;;;;;;5099929;28;20111;-76
2022/05/16 07:00:38;;;;;;;17.17;6.80;;;19.90;99.90;;;;;;5099366;28;20115;-76
2022/05/16 07:03:05;;;;;;;29.35;7.43;;;20.00;99.90;;;;;;5101249;28;20070;-76
2022/05/16 07:05:31;;;;;;;25.02;6.78;;;20.00;99.90;;;;;;5100725;28;20020;-76
2022/05/16 07:07:57;;;;;;;25.42;7.38;;;20.00;99.90;;;;;;5099531;28;20617;-76
2022/05/16 07:10:24;;;;;;;20.33;7.85;;;20.10;99.90;;;;;;5100431;28;20020;-76
2022/05/16 07:12:50;;;;;;;18.67;7.28;;;20.20;99.90;;;;;;5099434;28;20097;-76
2022/05/16 07:15:17;;;;;;;20.00;6.75;;;20.20;99.90;;;;;;5095885;28;20020;-76
2022/05/16 07:17:43;;;;;;;30.25;7.43;;;20.30;99.90;;;;;;5091814;28;20020;-77
2022/05/16 07:20:10;;;;;;;22.25;7.57;;;20.40;99.90;;;;;;5100514;28;20442;-77
2022/05/16 07:22:41;;;;;;;18.05;6.72;;;20.50;99.90;;;;;;5100411;28;20028;-78
2022/05/16 07:25:08;;;;;;;18.50;6.97;;;20.50;99.90;;;;;;5098798;28;20024;-78
2022/05/16 07:30:19;;;;;;;22.20;7.05;;;20.60;99.90;;;;;;5100053;28;20058;-78
2022/05/16 07:32:46;;;;;;;26.23;7.45;;;20.80;99.90;;;;;;5100399;28;20028;-77
2022/05/16 07:35:14;;;;;;;19.95;7.25;;;20.90;99.90;;;;;;5100188;28;20038;-77
2022/05/16 07:37:41;;;;;;;18.98;6.68;;;21.00;99.90;;;;;;5100080;28;20027;-77
2022/05/16 07:40:09;;;;;;;20.05;7.07;;;21.00;99.90;;;;;;5098672;28;20031;-77
2022/05/16 07:42:35;;;;;;;18.17;7.47;;;21.00;99.90;;;;;;5099927;28;20028;-77
2022/05/16 07:45:03;;;;;;;19.42;6.82;;;21.10;99.90;;;;;;5098542;28;20047;-77
2022/05/16 07:47:32;;;;;;;19.05;7.03;;;21.10;99.90;;;;;;5098556;28;20579;-77
2022/05/16 07:49:59;;;;;;;21.48;7.30;;;21.10;99.90;;;;;;5100204;28;20046;-77
2022/05/16 07:52:25;;;;;;;19.63;6.93;;;21.30;99.90;;;;;;5099822;28;20032;-77
2022/05/16 07:54:52;;;;;;;21.05;7.28;;;21.40;99.90;;;;;;5098371;28;20035;-77
2022/05/16 07:57:19;;;;;;;18.00;6.45;;;21.50;99.90;;;;;;5097521;28;20024;-76
2022/05/16 07:59:46;;;;;;;21.25;6.88;;;21.60;99.90;;;;;;5099319;28;20154;-76
2022/05/16 08:02:13;;;;;;;16.73;6.50;;;21.70;99.90;;;;;;5098269;28;20484;-76
2022/05/16 08:04:39;;;;;;;14.43;5.90;;;21.80;99.90;;;;;;5099968;28;20020;-77
2022/05/16 08:07:06;;;;;;;23.33;7.45;;;21.90;99.90;;;;;;5099483;28;20434;-76
2022/05/16 08:12:29;;;;;;;19.25;7.00;;;22.00;99.90;;;;;;5099794;28;20111;-76
2022/05/16 08:14:55;;;;;;;23.52;7.97;;;22.20;99.90;;;;;;5097765;28;20038;-78
2022/05/16 08:17:22;;;;;;;21.92;6.47;;;22.20;99.90;;;;;;5087539;28;20074;-76
2022/05/16 08:19:48;;;;;;;19.17;6.95;;;22.20;99.90;;;;;;5099461;28;20520;-76
2022/05/16 08:22:15;;;;;;;15.98;6.05;;;22.10;99.90;;;;;;5098069;28;20028;-76
2022/05/16 08:24:41;;;;;;;18.52;6.65;;;22.30;99.90;;;;;;5081854;28;20027;-76
2022/05/16 08:27:08;;;;;;;15.68;7.10;;;22.30;99.90;;;;;;5078404;28;20431;-76
2022/05/16 08:29:34;;;;;;;19.55;7.50;;;22.30;99.90;;;;;;5078558;28;20161;-76
2022/05/16 08:32:01;;;;;;;21.27;7.00;;;22.40;99.90;;;;;;5078544;28;20059;-76
2022/05/16 08:34:27;;;;;;;18.60;7.00;;;22.30;99.90;;;;;;5066276;28;20040;-76
2022/05/16 08:39:52;;;;;;;16.92;5.90;;;22.50;99.90;;;;;;5098814;28;20400;-75
2022/05/16 08:42:41;;;;;;;;;;;22.60;99.90;;;;;;5099459;28;20039;-75
2022/05/16 08:45:33;;;;;;;17.02;6.60;;;22.70;99.90;;;;;;5090361;28;20011;-75
2022/05/16 08:48:22;;;;;;;16.35;6.93;;;22.80;99.90;;;;;;5098558;28;20111;-75
2022/05/16 08:51:04;;;;;;;20.08;6.43;;;22.80;99.90;;;;;;5098969;28;20028;-75
2022/05/16 08:53:41;;;;;;;14.52;6.43;;;22.80;99.90;;;;;;5099127;28;20031;-76
2022/05/16 08:56:10;;;;;;;15.85;6.82;;;22.60;99.90;;;;;;5098883;28;20402;-75
2022/05/16 08:59:05;;;;;;;15.63;6.85;;;22.50;99.90;;;;;;5098540;28;20024;-76
2022/05/16 09:01:49;;;;;;;19.58;6.57;;;22.70;99.90;;;;;;5094443;28;20058;-75
2022/05/16 09:04:25;;;;;;;18.65;6.80;;;22.80;99.90;;;;;;5098691;28;20031;-75
2022/05/16 09:07:01;;;;;;;12.52;6.10;;;22.80;99.90;;;;;;5085562;28;20393;-76
2022/05/16 09:09:37;;;;;;;16.30;5.75;;;23.00;99.90;;;;;;5096761;28;20047;-75
2022/05/16 09:12:40;;;;;;;16.98;6.88;;;23.10;99.90;;;;;;5098355;28;20369;-75
2022/05/16 09:15:26;;;;;;;25.25;7.53;;;23.20;99.90;;;;;;5089251;28;20107;-75
2022/05/16 09:18:06;;;;;;;17.08;6.93;;;23.30;99.90;;;;;;5090657;28;20028;-75
2022/05/16 09:20:32;;;;;;;;;;;23.30;99.90;;;;;;5098720;28;20035;-75
2022/05/16 09:23:01;;;;;;;19.77;6.20;;;23.40;99.90;;;;;;5096509;28;20003;-76
2022/05/16 09:25:55;;;;;;;18.38;5.75;;;23.50;99.90;;;;;;5096592;28;20484;-75
2022/05/16 09:28:35;;;;;;;20.55;6.43;;;23.60;99.90;;;;;;5096643;28;20036;-75
2022/05/16 09:31:16;;;;;;;18.55;6.85;;;23.60;99.90;;;;;;5097935;28;20024;-74
2022/05/16 09:33:49;;;;;;;19.35;6.88;;;23.70;99.90;;;;;;5096713;28;20028;-75
2022/05/16 09:36:20;;;;;;;20.50;6.20;;;23.70;99.90;;;;;;5097847;28;20050;-75
2022/05/16 09:38:46;;;;;;;13.88;6.15;;;23.70;99.90;;;;;;5098206;28;20028;-75
2022/05/16 09:41:36;;;;;;;16.30;7.13;;;23.80;99.90;;;;;;5097635;28;20034;-75
2022/05/16 09:44:27;;;;;;;14.52;6.40;;;23.90;99.90;;;;;;5096134;28;20039;-75
2022/05/16 09:47:23;;;;;;;20.60;6.75;;;23.80;99.90;;;;;;5096168;28;20062;-75
2022/05/16 09:50:08;;;;;;;15.25;6.72;;;24.00;99.90;;;;;;5097802;28;20040;-76
2022/05/16 09:52:42;;;;;;;21.77;7.00;;;24.20;99.90;;;;;;5096565;28;20020;-75
2022/05/16 09:55:23;;;;;;;21.55;7.13;;;24.30;99.90;;;;;;5079551;28;20024;-75
2022/05/16 09:57:53;;;;;;;13.23;6.28;;;24.30;99.90;;;;;;5096075;28;20467;-75
2022/05/16 10:00:28;;;;;;;21.65;7.35;;;24.20;99.90;;;;;;5097297;28;20483;-76
2022/05/16 10:03:16;;;;;;;15.95;6.35;;;24.30;99.90;;;;;;5097557;28;20024;-75
2022/05/16 10:05:47;;;;;;;18.58;6.28;;;24.50;99.90;;;;;;5089927;28;20040;-75
2022/05/16 10:08:17;;;;;;;;;;;24.60;99.90;;;;;;5096818;28;20016;-76
2022/05/16 10:10:46;;;;;;;18.30;5.75;;;24.60;99.90;;;;;;5095795;28;19911;-76
2022/05/16 10:13:12;;;;;;;18.80;5.82;;;24.70;99.90;;;;;;5097263;28;20502;-77
2022/05/16 10:15:38;;;;;;;20.20;5.88;;;24.60;99.90;;;;;;5070342;28;20553;-75
2022/05/16 10:18:08;;;;;;;19.80;5.72;;;24.60;99.90;;;;;;5076823;28;20033;-76
2022/05/16 10:20:37;;;;;;;;;;;24.60;99.90;;;;;;5075766;28;20046;-76
2022/05/16 10:23:11;;;;;;;16.75;5.63;;;24.70;99.90;;;;;;5090260;28;19908;-76
2022/05/16 10:25:44;;;;;;;15.25;5.78;;;24.80;99.90;;;;;;5095680;28;20024;-76
2022/05/16 10:28:20;;;;;;;18.50;6.22;;;24.90;99.90;;;;;;5095808;28;20369;-76
2022/05/16 10:33:34;;;;;;;14.45;5.78;;;25.00;99.90;;;;;;5084972;28;20114;-75
2022/05/16 10:36:06;;;;;;;21.95;6.15;;;24.90;99.90;;;;;;5097001;28;20085;-76
2022/05/16 10:38:38;;;;;;;10.52;5.78;;;24.80;99.90;;;;;;5097061;28;20024;-76
2022/05/16 10:41:10;;;;;;;14.23;6.55;;;25.00;99.90;;;;;;5095132;28;20048;-76
2022/05/16 10:43:57;;;;;;;17.08;5.53;;;25.00;99.90;;;;;;5085485;28;20025;-76
2022/05/16 10:46:31;;;;;;;18.88;5.78;;;25.00;99.90;;;;;;5083792;28;20052;-75
2022/05/16 10:49:10;;;;;;;12.27;5.45;;;25.20;99.90;;;;;;5095440;28;20020;-76
2022/05/16 10:51:39;;;;;;;19.73;6.43;;;25.40;99.90;;;;;;5096919;28;20039;-76
2022/05/16 10:54:11;;;;;;;18.67;5.93;;;25.50;99.90;;;;;;5096785;28;20020;-76
2022/05/16 10:56:49;;;;;;;22.23;6.50;;;25.60;99.90;;;;;;5096861;28;20024;-75
2022/05/16 10:59:39;;;;;;;10.25;4.93;;;25.70;99.90;;;;;;5096628;28;20024;-75
2022/05/16 11:02:29;;;;;;;18.48;6.38;;;25.70;99.90;;;;;;5092780;28;20043;-75
2022/05/16 11:05:17;;;;;;;17.30;6.55;;;25.70;99.90;;;;;;5089812;28;20499;-76
2022/05/16 11:08:00;;;;;;;17.45;6.18;;;25.80;99.90;;;;;;5096812;28;20024;-76
2022/05/16 11:10:53;;;;;;;10.65;5.28;;;25.90;99.90;;;;;;5077546;28;20024;-76
2022/05/16 11:13:27;;;;;;;12.95;5.32;;;25.90;99.90;;;;;;5092016;28;20051;-75
2022/05/16 11:15:56;;;;;;;15.32;4.82;;;26.00;99.90;;;;;;5085865;28;20024;-76
2022/05/16 11:18:49;;;;;;;14.95;5.78;;;26.10;99.90;;;;;;5093006;28;20039;-76
2022/05/16 11:21:43;;;;;;;15.77;5.20;;;26.30;99.90;;;;;;5096701;28;20031;-76
2022/05/16 11:24:33;;;;;;;14.52;5.97;;;26.50;99.90;;;;;;5096798;28;20032;-75
2022/05/16 11:27:09;;;;;;;11.90;4.55;;;26.60;99.90;;;;;;5096550;28;20477;-75
2022/05/16 11:29:53;;;;;;;16.33;5.00;;;26.60;99.90;;;;;;5095059;28;20024;-75
2022/05/16 11:32:44;;;;;;;12.50;5.28;;;26.70;99.90;;;;;;5092617;28;20029;-75
2022/05/16 11:35:36;;;;;;;17.75;5.13;;;26.90;99.90;;;;;;5079923;28;20043;-75
2022/05/16 11:38:09;;;;;;;19.20;5.40;;;26.70;99.90;;;;;;5097961;28;20019;-75
2022/05/16 11:40:52;;;;;;;16.48;6.13;;;26.80;99.90;;;;;;5099782;28;20027;-75
2022/05/16 11:43:30;;;;;;;15.57;5.35;;;26.90;99.90;;;;;;5098638;28;20031;-75
2022/05/16 11:46:17;;;;;;;16.13;5.75;;;27.00;99.90;;;;;;5098271;28;20059;-75
2022/05/16 11:49:34;;;;;;;14.55;4.38;;;27.20;99.90;;;;;;5099955;28;20078;-75
2022/05/16 11:52:04;;;;;;;22.55;5.68;;;27.30;99.90;;;;;;5065203;28;20043;-75
2022/05/16 11:54:34;;;;;;;26.33;5.82;;;27.30;99.90;;;;;;5098147;28;20027;-75
2022/05/16 12:02:41;;;;;;;21.23;5.30;;;27.70;99.90;;;;;;5093060;28;20063;-75
2022/05/16 12:05:08;;;;;;;16.45;5.30;;;27.60;99.90;;;;;;5108108;28;20021;-75
2022/05/16 12:07:34;;;;;;;17.70;5.32;;;27.60;99.90;;;;;;5098122;28;20032;-75
2022/05/16 12:10:09;;;;;;;12.45;5.50;;;27.80;99.90;;;;;;5087993;28;20491;-75
2022/05/16 12:12:41;;;;;;;14.50;4.30;;;28.00;99.90;;;;;;5085722;28;20396;-75
2022/05/16 12:15:16;;;;;;;16.98;4.53;;;28.00;99.90;;;;;;5096080;28;20020;-75
2022/05/16 12:17:58;;;;;;;15.77;4.70;;;28.10;99.90;;;;;;5090089;28;20177;-75
2022/05/16 12:20:42;;;;;;;20.88;5.78;;;28.30;99.90;;;;;;5099274;28;20585;-76
2022/05/16 12:23:10;;;;;;;16.27;5.28;;;28.40;99.90;;;;;;5099128;28;20066;-74
2022/05/16 12:25:38;;;;;;;8.88;4.28;;;28.30;99.90;;;;;;5099249;28;20020;-74
2022/05/16 12:28:13;;;;;;;12.55;4.13;;;28.50;99.90;;;;;;5099181;28;20383;-75
2022/05/16 12:30:41;;;;;;;11.52;4.32;;;28.60;99.90;;;;;;5097868;28;20021;-74
2022/05/16 12:33:25;;;;;;;11.95;4.13;;;28.70;99.90;;;;;;5099063;28;20035;-74
2022/05/16 12:35:53;;;;;;;14.35;4.18;;;28.70;99.90;;;;;;5099108;28;20028;-74
2022/05/16 12:38:21;;;;;;;13.70;4.60;;;28.90;98.40;;;;;;5090928;28;20030;-75
2022/05/16 12:41:08;;;;;;;10.73;4.85;;;28.80;97.20;;;;;;5097237;28;20513;-75
2022/05/16 12:44:13;;;;;;;18.45;4.95;;;28.80;98.90;;;;;;5098290;28;20032;-75
2022/05/16 12:47:00;;;;;;;25.27;4.95;;;28.60;98.80;;;;;;5086711;28;20407;-75
2022/05/16 12:49:46;;;;;;;13.95;4.38;;;28.80;99.90;;;;;;5097597;28;20024;-74
2022/05/16 12:52:49;;;;;;;13.98;4.47;;;29.10;99.20;;;;;;5097563;28;20361;-74
2022/05/16 12:55:21;;;;;;;13.68;4.28;;;29.10;97.70;;;;;;5098569;28;20024;-74
2022/05/16 12:57:50;;;;;;;8.10;3.35;;;29.40;97.60;;;;;;5097859;28;20033;-75
2022/05/16 13:00:20;;;;;;;11.93;4.22;;;29.10;94.90;;;;;;5098701;28;20027;-74
2022/05/16 13:03:09;;;;;;;14.50;4.78;;;29.20;96.70;;;;;;5098610;28;20030;-75
2022/05/16 13:05:45;;;;;;;9.52;3.95;;;29.60;97.00;;;;;;5097120;28;20059;-74
2022/05/16 13:08:17;;;;;;;10.52;3.30;;;29.70;96.80;;;;;;5098764;28;20074;-75
2022/05/16 13:10:48;;;;;;;13.27;4.03;;;29.80;95.00;;;;;;5098369;28;20050;-74
2022/05/16 13:13:45;;;;;;;12.77;4.28;;;29.90;95.80;;;;;;5097078;28;20027;-74
2022/05/16 13:16:22;;;;;;;12.00;3.72;;;29.90;95.40;;;;;;5086371;28;20021;-75
2022/05/16 13:18:56;;;;;;;14.07;4.97;;;29.70;95.90;;;;;;5100548;28;20452;-75
2022/05/16 13:21:32;;;;;;;12.57;4.18;;;29.80;96.30;;;;;;5096917;28;20028;-74
2022/05/16 13:23:58;;;;;;;12.45;3.60;;;30.10;95.00;;;;;;5098281;28;20426;-75
2022/05/16 13:29:22;;;;;;;11.93;4.13;;;30.20;94.10;;;;;;5098177;28;20081;-75
2022/05/16 13:31:56;;;;;;;10.50;4.35;;;30.20;95.00;;;;;;5097035;28;20101;-75
2022/05/16 13:34:51;;;;;;;16.20;5.63;;;29.60;92.80;;;;;;5094405;28;20028;-74